Alfarata, Pennsylvania
Current Conditions -  °F | °C
As of 11:35 PM on Wednesday 22 Oct 2014 (Local Time) from KUNV Reporting Station
Overcast Overcast  
Wind Chill: 43°   Ceiling: 1700
Heat Index: 47°   Visibility: 10mi
Dew Point: 40°   Wind: 8mph
Humidity: 79%   Direction: 350°N
Pressure: 30.04"   Gusts: 21mph
Location:  40.7125°N, 77.3707°W
Report Text: KUNV 230335Z AUTO 35007G18KT 310V010 10SM OVC017 08/05 A3004 RMK AO2 LTG DSNT NE T00820047
Loading
Personal Weather Stations






























Interactive Weather Map
Tropical Storm Tracking
New forecast layout! Learn more

10-Day Weather Forecast

Advertisements
Track Severe Weather on mobile